sensor_id;sensor_type;location;lat;lon;timestamp;temperature;humidity
2565;DHT22;1292;48.020;7.822;2023-10-13T05:45:19;16.40;99.90
2565;DHT22;1292;48.020;7.822;2023-10-13T05:48:19;16.50;99.90
2565;DHT22;1292;48.020;7.822;2023-10-13T05:51:00;16.40;99.90
2565;DHT22;1292;48.020;7.822;2023-10-13T05:53:41;16.40;99.90
2565;DHT22;1292;48.020;7.822;2023-10-13T05:56:25;16.30;99.90
2565;DHT22;1292;48.020;7.822;2023-10-13T05:59:05;16.30;99.90
2565;DHT22;1292;48.020;7.822;2023-10-13T06:01:51;16.30;99.90
2565;DHT22;1292;48.020;7.822;2023-10-13T06:04:36;16.20;99.90
2565;DHT22;1292;48.020;7.822;2023-10-13T06:07:20;16.20;99.90
2565;DHT22;1292;48.020;7.822;2023-10-13T06:10:04;16.00;99.90
2565;DHT22;1292;48.020;7.822;2023-10-13T06:12:49;16.10;99.90
2565;DHT22;1292;48.020;7.822;2023-10-13T06:15:36;16.00;99.90
2565;DHT22;1292;48.020;7.822;2023-10-13T06:18:21;16.10;99.90
2565;DHT22;1292;48.020;7.822;2023-10-13T06:21:05;16.00;99.90
2565;DHT22;1292;48.020;7.822;2023-10-13T06:23:49;16.00;99.90
2565;DHT22;1292;48.020;7.822;2023-10-13T06:26:34;16.00;99.90
2565;DHT22;1292;48.020;7.822;2023-10-13T06:29:18;16.00;99.90
2565;DHT22;1292;48.020;7.822;2023-10-13T06:31:47;16.00;99.90
2565;DHT22;1292;48.020;7.822;2023-10-13T06:34:15;16.10;99.90
2565;DHT22;1292;48.020;7.822;2023-10-13T06:36:46;16.10;99.90
2565;DHT22;1292;48.020;7.822;2023-10-13T06:39:14;16.20;99.90
2565;DHT22;1292;48.020;7.822;2023-10-13T06:42:01;16.20;99.90
2565;DHT22;1292;48.020;7.822;2023-10-13T06:44:29;16.30;99.90
2565;DHT22;1292;48.020;7.822;2023-10-13T06:46:58;16.30;99.90
2565;DHT22;1292;48.020;7.822;2023-10-13T06:49:29;16.30;99.90
2565;DHT22;1292;48.020;7.822;2023-10-13T06:52:01;16.40;99.90
2565;DHT22;1292;48.020;7.822;2023-10-13T06:54:32;16.40;99.90
2565;DHT22;1292;48.020;7.822;2023-10-13T06:56:59;16.50;99.90
2565;DHT22;1292;48.020;7.822;2023-10-13T06:59:26;16.50;99.90
2565;DHT22;1292;48.020;7.822;2023-10-13T07:01:53;16.50;99.90
2565;DHT22;1292;48.020;7.822;2023-10-13T07:04:20;16.60;99.90
2565;DHT22;1292;48.020;7.822;2023-10-13T07:06:48;16.70;99.90
2565;DHT22;1292;48.020;7.822;2023-10-13T07:09:16;16.70;99.90
2565;DHT22;1292;48.020;7.822;2023-10-13T07:11:58;16.80;99.90
2565;DHT22;1292;48.020;7.822;2023-10-13T07:14:26;16.90;99.90
2565;DHT22;1292;48.020;7.822;2023-10-13T07:16:57;16.90;99.90
2565;DHT22;1292;48.020;7.822;2023-10-13T07:19:24;17.00;99.90
2565;DHT22;1292;48.020;7.822;2023-10-13T07:21:54;17.00;99.90
2565;DHT22;1292;48.020;7.822;2023-10-13T07:24:25;17.00;99.90
2565;DHT22;1292;48.020;7.822;2023-10-13T07:26:53;17.10;99.90
2565;DHT22;1292;48.020;7.822;2023-10-13T07:29:29;17.20;99.90
2565;DHT22;1292;48.020;7.822;2023-10-13T07:31:56;17.20;99.90
2565;DHT22;1292;48.020;7.822;2023-10-13T07:34:24;17.20;99.90
2565;DHT22;1292;48.020;7.822;2023-10-13T07:36:52;17.30;99.90
2565;DHT22;1292;48.020;7.822;2023-10-13T07:39:28;17.40;99.90
2565;DHT22;1292;48.020;7.822;2023-10-13T07:41:59;17.50;99.90
2565;DHT22;1292;48.020;7.822;2023-10-13T07:44:31;17.60;99.90
2565;DHT22;1292;48.020;7.822;2023-10-13T07:46:59;17.70;99.90
2565;DHT22;1292;48.020;7.822;2023-10-13T07:49:29;17.80;99.90
2565;DHT22;1292;48.020;7.822;2023-10-13T07:52:04;17.90;99.90
2565;DHT22;1292;48.020;7.822;2023-10-13T07:54:46;18.10;99.90
2565;DHT22;1292;48.020;7.822;2023-10-13T07:57:14;18.30;99.90
2565;DHT22;1292;48.020;7.822;2023-10-13T07:59:42;18.50;99.90
2565;DHT22;1292;48.020;7.822;2023-10-13T08:02:16;18.50;99.90
2565;DHT22;1292;48.020;7.822;2023-10-13T08:05:13;18.60;99.90
2565;DHT22;1292;48.020;7.822;2023-10-13T08:07:49;18.70;99.90
2565;DHT22;1292;48.020;7.822;2023-10-13T08:10:19;18.80;99.90
2565;DHT22;1292;48.020;7.822;2023-10-13T08:12:55;18.90;99.90
2565;DHT22;1292;48.020;7.822;2023-10-13T08:15:24;19.00;99.90
2565;DHT22;1292;48.020;7.822;2023-10-13T08:17:58;19.20;99.90
2565;DHT22;1292;48.020;7.822;2023-10-13T08:20:30;19.30;99.90
2565;DHT22;1292;48.020;7.822;2023-10-13T08:23:04;19.50;99.90
2565;DHT22;1292;48.020;7.822;2023-10-13T08:25:41;19.70;99.90
2565;DHT22;1292;48.020;7.822;2023-10-13T08:28:25;19.90;99.90
2565;DHT22;1292;48.020;7.822;2023-10-13T08:31:10;20.10;99.90
2565;DHT22;1292;48.020;7.822;2023-10-13T08:33:47;20.20;99.90
2565;DHT22;1292;48.020;7.822;2023-10-13T08:36:14;20.30;99.90
2565;DHT22;1292;48.020;7.822;2023-10-13T08:38:53;20.40;99.90
2565;DHT22;1292;48.020;7.822;2023-10-13T08:41:22;20.50;99.90
2565;DHT22;1292;48.020;7.822;2023-10-13T08:44:01;20.60;99.90
2565;DHT22;1292;48.020;7.822;2023-10-13T08:46:30;20.70;99.90
2565;DHT22;1292;48.020;7.822;2023-10-13T08:49:18;20.80;99.90
2565;DHT22;1292;48.020;7.822;2023-10-13T08:51:49;21.00;99.90
2565;DHT22;1292;48.020;7.822;2023-10-13T08:54:32;21.10;99.90
2565;DHT22;1292;48.020;7.822;2023-10-13T08:57:12;21.20;99.90
2565;DHT22;1292;48.020;7.822;2023-10-13T08:59:59;21.30;99.90
2565;DHT22;1292;48.020;7.822;2023-10-13T09:02:46;21.30;99.90
2565;DHT22;1292;48.020;7.822;2023-10-13T09:05:33;21.40;99.90
2565;DHT22;1292;48.020;7.822;2023-10-13T09:08:07;21.50;99.90
2565;DHT22;1292;48.020;7.822;2023-10-13T09:10:35;21.60;99.90
2565;DHT22;1292;48.020;7.822;2023-10-13T09:13:11;21.60;99.90
2565;DHT22;1292;48.020;7.822;2023-10-13T09:15:46;21.70;99.90
2565;DHT22;1292;48.020;7.822;2023-10-13T09:18:29;21.70;99.90
2565;DHT22;1292;48.020;7.822;2023-10-13T09:21:12;21.80;99.90
2565;DHT22;1292;48.020;7.822;2023-10-13T09:24:12;21.90;99.90
2565;DHT22;1292;48.020;7.822;2023-10-13T09:26:53;22.00;99.90
2565;DHT22;1292;48.020;7.822;2023-10-13T09:29:23;22.10;99.90
2565;DHT22;1292;48.020;7.822;2023-10-13T09:32:01;22.20;99.90
2565;DHT22;1292;48.020;7.822;2023-10-13T09:34:28;22.20;99.90
2565;DHT22;1292;48.020;7.822;2023-10-13T09:36:59;22.30;99.90
2565;DHT22;1292;48.020;7.822;2023-10-13T09:39:28;22.40;99.90
2565;DHT22;1292;48.020;7.822;2023-10-13T09:42:09;22.40;99.90
2565;DHT22;1292;48.020;7.822;2023-10-13T09:44:37;22.50;99.90
2565;DHT22;1292;48.020;7.822;2023-10-13T09:47:10;22.60;99.90
2565;DHT22;1292;48.020;7.822;2023-10-13T09:49:44;22.70;99.90
2565;DHT22;1292;48.020;7.822;2023-10-13T09:52:17;22.80;99.90
2565;DHT22;1292;48.020;7.822;2023-10-13T09:55:02;23.00;99.90
2565;DHT22;1292;48.020;7.822;2023-10-13T09:57:37;23.20;99.90
2565;DHT22;1292;48.020;7.822;2023-10-13T10:00:12;23.30;99.90
2565;DHT22;1292;48.020;7.822;2023-10-13T10:03:10;23.40;99.90
2565;DHT22;1292;48.020;7.822;2023-10-13T10:05:56;23.60;99.90
2565;DHT22;1292;48.020;7.822;2023-10-13T10:08:29;23.70;99.90
2565;DHT22;1292;48.020;7.822;2023-10-13T10:11:29;23.90;99.90
2565;DHT22;1292;48.020;7.822;2023-10-13T10:14:07;24.00;99.90
2565;DHT22;1292;48.020;7.822;2023-10-13T10:16:45;24.10;99.90
2565;DHT22;1292;48.020;7.822;2023-10-13T10:19:14;24.20;99.90
2565;DHT22;1292;48.020;7.822;2023-10-13T10:21:41;24.30;99.90
2565;DHT22;1292;48.020;7.822;2023-10-13T10:24:16;24.30;99.90
2565;DHT22;1292;48.020;7.822;2023-10-13T10:26:53;24.40;99.90
2565;DHT22;1292;48.020;7.822;2023-10-13T10:29:20;24.60;99.90
2565;DHT22;1292;48.020;7.822;2023-10-13T10:31:48;24.60;99.90
2565;DHT22;1292;48.020;7.822;2023-10-13T10:34:16;24.80;99.90
2565;DHT22;1292;48.020;7.822;2023-10-13T10:36:47;25.00;99.90
2565;DHT22;1292;48.020;7.822;2023-10-13T10:39:14;25.10;99.90
2565;DHT22;1292;48.020;7.822;2023-10-13T10:41:43;25.20;99.90
2565;DHT22;1292;48.020;7.822;2023-10-13T10:44:17;25.30;99.90
2565;DHT22;1292;48.020;7.822;2023-10-13T10:46:47;25.40;99.90
2565;DHT22;1292;48.020;7.822;2023-10-13T10:49:23;25.50;99.90
2565;DHT22;1292;48.020;7.822;2023-10-13T10:51:58;25.60;99.90
2565;DHT22;1292;48.020;7.822;2023-10-13T10:54:30;25.60;99.90
2565;DHT22;1292;48.020;7.822;2023-10-13T10:56:58;25.70;99.90
2565;DHT22;1292;48.020;7.822;2023-10-13T10:59:37;25.80;99.50
2565;DHT22;1292;48.020;7.822;2023-10-13T11:02:07;25.90;99.10
2565;DHT22;1292;48.020;7.822;2023-10-13T11:04:34;26.00;99.00
2565;DHT22;1292;48.020;7.822;2023-10-13T11:07:07;26.00;99.40
2565;DHT22;1292;48.020;7.822;2023-10-13T11:09:35;26.10;99.10
2565;DHT22;1292;48.020;7.822;2023-10-13T11:12:12;26.20;98.90
2565;DHT22;1292;48.020;7.822;2023-10-13T11:15:01;26.30;99.00
2565;DHT22;1292;48.020;7.822;2023-10-13T11:17:29;26.30;98.50
2565;DHT22;1292;48.020;7.822;2023-10-13T11:20:11;26.40;98.00
2565;DHT22;1292;48.020;7.822;2023-10-13T11:22:45;26.40;97.60
2565;DHT22;1292;48.020;7.822;2023-10-13T11:25:20;26.50;96.80
2565;DHT22;1292;48.020;7.822;2023-10-13T11:27:48;26.60;97.40
2565;DHT22;1292;48.020;7.822;2023-10-13T11:30:27;26.60;97.50
2565;DHT22;1292;48.020;7.822;2023-10-13T11:33:08;26.70;95.90
2565;DHT22;1292;48.020;7.822;2023-10-13T11:35:37;26.80;95.70
2565;DHT22;1292;48.020;7.822;2023-10-13T11:38:22;26.90;96.70
2565;DHT22;1292;48.020;7.822;2023-10-13T11:40:54;27.00;94.90
2565;DHT22;1292;48.020;7.822;2023-10-13T11:43:38;27.00;95.80
2565;DHT22;1292;48.020;7.822;2023-10-13T11:46:27;27.00;95.40
2565;DHT22;1292;48.020;7.822;2023-10-13T11:49:12;27.10;94.70
2565;DHT22;1292;48.020;7.822;2023-10-13T11:51:56;27.20;95.30
2565;DHT22;1292;48.020;7.822;2023-10-13T11:54:34;27.20;95.00
2565;DHT22;1292;48.020;7.822;2023-10-13T11:57:07;27.20;95.10
2565;DHT22;1292;48.020;7.822;2023-10-13T11:59:34;27.30;95.90
2565;DHT22;1292;48.020;7.822;2023-10-13T12:02:06;27.40;94.70
2565;DHT22;1292;48.020;7.822;2023-10-13T12:05:07;27.50;95.60
2565;DHT22;1292;48.020;7.822;2023-10-13T12:07:38;27.50;96.00
2565;DHT22;1292;48.020;7.822;2023-10-13T12:10:17;27.60;94.90
2565;DHT22;1292;48.020;7.822;2023-10-13T12:13:15;27.60;94.90
2565;DHT22;1292;48.020;7.822;2023-10-13T12:15:43;27.70;94.80
2565;DHT22;1292;48.020;7.822;2023-10-13T12:18:17;27.70;94.50
2565;DHT22;1292;48.020;7.822;2023-10-13T12:20:46;27.80;94.80
2565;DHT22;1292;48.020;7.822;2023-10-13T12:23:14;27.80;94.70
2565;DHT22;1292;48.020;7.822;2023-10-13T12:25:46;27.80;94.70
2565;DHT22;1292;48.020;7.822;2023-10-13T12:28:26;27.80;94.10
2565;DHT22;1292;48.020;7.822;2023-10-13T12:30:55;27.90;94.60
2565;DHT22;1292;48.020;7.822;2023-10-13T12:33:24;27.90;94.10
2565;DHT22;1292;48.020;7.822;2023-10-13T12:36:03;27.90;93.90
2565;DHT22;1292;48.020;7.822;2023-10-13T12:38:33;28.00;93.90
2565;DHT22;1292;48.020;7.822;2023-10-13T12:41:37;28.00;93.50
2565;DHT22;1292;48.020;7.822;2023-10-13T12:44:21;28.00;93.90
2565;DHT22;1292;48.020;7.822;2023-10-13T12:47:06;28.00;93.40
2565;DHT22;1292;48.020;7.822;2023-10-13T12:49:50;28.10;93.30
2565;DHT22;1292;48.020;7.822;2023-10-13T12:52:26;28.10;93.20
2565;DHT22;1292;48.020;7.822;2023-10-13T12:54:57;28.10;92.90
2565;DHT22;1292;48.020;7.822;2023-10-13T12:57:35;28.10;92.50
2565;DHT22;1292;48.020;7.822;2023-10-13T13:00:10;28.10;92.50
2565;DHT22;1292;48.020;7.822;2023-10-13T13:02:47;28.10;93.10
2565;DHT22;1292;48.020;7.822;2023-10-13T13:05:16;28.10;92.20
2565;DHT22;1292;48.020;7.822;2023-10-13T13:07:49;28.10;92.20
2565;DHT22;1292;48.020;7.822;2023-10-13T13:10:19;28.10;91.60
2565;DHT22;1292;48.020;7.822;2023-10-13T13:12:54;28.20;92.20
2565;DHT22;1292;48.020;7.822;2023-10-13T13:15:21;28.20;92.60
2565;DHT22;1292;48.020;7.822;2023-10-13T13:17:49;28.20;91.40
2565;DHT22;1292;48.020;7.822;2023-10-13T13:20:16;28.20;91.90
2565;DHT22;1292;48.020;7.822;2023-10-13T13:22:54;28.20;92.60
2565;DHT22;1292;48.020;7.822;2023-10-13T13:25:27;28.20;92.50
2565;DHT22;1292;48.020;7.822;2023-10-13T13:27:55;28.20;92.60
2565;DHT22;1292;48.020;7.822;2023-10-13T13:30:24;28.20;90.80
2565;DHT22;1292;48.020;7.822;2023-10-13T13:32:59;28.10;91.60
2565;DHT22;1292;48.020;7.822;2023-10-13T13:35:29;28.20;91.20
2565;DHT22;1292;48.020;7.822;2023-10-13T13:38:02;28.10;91.20
2565;DHT22;1292;48.020;7.822;2023-10-13T13:40:38;28.20;91.60
2565;DHT22;1292;48.020;7.822;2023-10-13T13:43:05;28.20;90.50
2565;DHT22;1292;48.020;7.822;2023-10-13T13:45:33;28.20;91.10
2565;DHT22;1292;48.020;7.822;2023-10-13T13:48:00;28.20;91.00
2565;DHT22;1292;48.020;7.822;2023-10-13T13:50:33;28.20;90.90
2565;DHT22;1292;48.020;7.822;2023-10-13T13:53:06;28.20;90.50
2565;DHT22;1292;48.020;7.822;2023-10-13T13:55:35;28.20;90.10
2565;DHT22;1292;48.020;7.822;2023-10-13T13:58:05;28.10;89.50
2565;DHT22;1292;48.020;7.822;2023-10-13T14:00:34;28.10;89.80
2565;DHT22;1292;48.020;7.822;2023-10-13T14:03:04;28.10;88.30
2565;DHT22;1292;48.020;7.822;2023-10-13T14:05:30;28.10;89.30
2565;DHT22;1292;48.020;7.822;2023-10-13T14:07:57;28.10;90.10
2565;DHT22;1292;48.020;7.822;2023-10-13T14:10:25;28.20;90.20
2565;DHT22;1292;48.020;7.822;2023-10-13T14:13:21;28.10;90.20
2565;DHT22;1292;48.020;7.822;2023-10-13T14:16:07;28.10;89.40
2565;DHT22;1292;48.020;7.822;2023-10-13T14:18:41;28.10;89.30
2565;DHT22;1292;48.020;7.822;2023-10-13T14:21:08;28.10;88.30
2565;DHT22;1292;48.020;7.822;2023-10-13T14:23:35;28.00;88.90
2565;DHT22;1292;48.020;7.822;2023-10-13T14:26:05;28.00;90.00
2565;DHT22;1292;48.020;7.822;2023-10-13T14:28:34;28.00;90.30
2565;DHT22;1292;48.020;7.822;2023-10-13T14:31:04;27.90;90.00
2565;DHT22;1292;48.020;7.822;2023-10-13T14:33:35;28.00;89.80
2565;DHT22;1292;48.020;7.822;2023-10-13T14:36:02;27.90;90.80
2565;DHT22;1292;48.020;7.822;2023-10-13T14:38:30;27.90;90.60
2565;DHT22;1292;48.020;7.822;2023-10-13T14:40:57;28.00;89.80
2565;DHT22;1292;48.020;7.822;2023-10-13T14:43:25;27.90;87.70
2565;DHT22;1292;48.020;7.822;2023-10-13T14:45:52;27.90;89.50
2565;DHT22;1292;48.020;7.822;2023-10-13T14:48:19;27.90;89.00
2565;DHT22;1292;48.020;7.822;2023-10-13T14:50:49;27.90;89.70
2565;DHT22;1292;48.020;7.822;2023-10-13T14:53:16;27.90;90.10
2565;DHT22;1292;48.020;7.822;2023-10-13T14:55:45;27.80;90.10
2565;DHT22;1292;48.020;7.822;2023-10-13T14:58:12;27.80;90.00
2565;DHT22;1292;48.020;7.822;2023-10-13T15:00:43;27.80;90.00
2565;DHT22;1292;48.020;7.822;2023-10-13T15:03:10;27.70;90.40
2565;DHT22;1292;48.020;7.822;2023-10-13T15:05:38;27.70;90.30
2565;DHT22;1292;48.020;7.822;2023-10-13T15:08:08;27.60;89.30
2565;DHT22;1292;48.020;7.822;2023-10-13T15:10:35;27.60;90.60
2565;DHT22;1292;48.020;7.822;2023-10-13T15:13:02;27.50;90.40
2565;DHT22;1292;48.020;7.822;2023-10-13T15:15:30;27.50;90.50
2565;DHT22;1292;48.020;7.822;2023-10-13T15:17:59;27.50;90.40
2565;DHT22;1292;48.020;7.822;2023-10-13T15:20:26;27.50;90.50
2565;DHT22;1292;48.020;7.822;2023-10-13T15:22:53;27.50;91.10
2565;DHT22;1292;48.020;7.822;2023-10-13T15:25:25;27.40;90.90
2565;DHT22;1292;48.020;7.822;2023-10-13T15:27:57;27.40;91.00
2565;DHT22;1292;48.020;7.822;2023-10-13T15:30:28;27.30;90.30
2565;DHT22;1292;48.020;7.822;2023-10-13T15:33:10;27.20;90.50
2565;DHT22;1292;48.020;7.822;2023-10-13T15:35:38;27.20;90.50
2565;DHT22;1292;48.020;7.822;2023-10-13T15:38:09;27.20;90.70
2565;DHT22;1292;48.020;7.822;2023-10-13T15:40:40;27.20;90.40
2565;DHT22;1292;48.020;7.822;2023-10-13T15:43:08;27.10;90.10
2565;DHT22;1292;48.020;7.822;2023-10-13T15:45:35;27.10;90.50
2565;DHT22;1292;48.020;7.822;2023-10-13T15:48:08;27.10;90.40
2565;DHT22;1292;48.020;7.822;2023-10-13T15:50:38;27.10;90.60
2565;DHT22;1292;48.020;7.822;2023-10-13T15:53:06;27.10;90.30
2565;DHT22;1292;48.020;7.822;2023-10-13T15:55:35;27.10;91.00
2565;DHT22;1292;48.020;7.822;2023-10-13T15:58:03;27.00;90.90
2565;DHT22;1292;48.020;7.822;2023-10-13T16:00:33;27.00;90.80
2565;DHT22;1292;48.020;7.822;2023-10-13T16:03:01;26.90;91.00
2565;DHT22;1292;48.020;7.822;2023-10-13T16:05:32;26.90;90.70
2565;DHT22;1292;48.020;7.822;2023-10-13T16:08:02;26.90;91.30
2565;DHT22;1292;48.020;7.822;2023-10-13T16:10:32;26.80;91.50
2565;DHT22;1292;48.020;7.822;2023-10-13T16:12:59;26.70;91.40
2565;DHT22;1292;48.020;7.822;2023-10-13T16:15:25;26.70;91.90
2565;DHT22;1292;48.020;7.822;2023-10-13T16:17:53;26.60;92.10
2565;DHT22;1292;48.020;7.822;2023-10-13T16:20:20;26.60;91.90
2565;DHT22;1292;48.020;7.822;2023-10-13T16:22:47;26.50;92.40
2565;DHT22;1292;48.020;7.822;2023-10-13T16:25:16;26.40;92.50
2565;DHT22;1292;48.020;7.822;2023-10-13T16:27:43;26.30;92.60
2565;DHT22;1292;48.020;7.822;2023-10-13T16:30:13;26.30;93.30
2565;DHT22;1292;48.020;7.822;2023-10-13T16:32:45;26.20;93.40
2565;DHT22;1292;48.020;7.822;2023-10-13T16:35:13;26.00;93.40
2565;DHT22;1292;48.020;7.822;2023-10-13T16:37:43;26.00;93.80
2565;DHT22;1292;48.020;7.822;2023-10-13T16:40:16;25.80;93.80
2565;DHT22;1292;48.020;7.822;2023-10-13T16:42:44;25.70;93.90
2565;DHT22;1292;48.020;7.822;2023-10-13T16:45:11;25.70;94.10
2565;DHT22;1292;48.020;7.822;2023-10-13T16:47:47;25.50;93.80
2565;DHT22;1292;48.020;7.822;2023-10-13T16:50:14;25.40;94.50
2565;DHT22;1292;48.020;7.822;2023-10-13T16:52:42;25.40;94.20
2565;DHT22;1292;48.020;7.822;2023-10-13T16:55:12;25.30;94.20
2565;DHT22;1292;48.020;7.822;2023-10-13T16:57:40;25.20;94.70
2565;DHT22;1292;48.020;7.822;2023-10-13T17:00:07;25.10;95.00
2565;DHT22;1292;48.020;7.822;2023-10-13T17:02:38;25.00;94.50
2565;DHT22;1292;48.020;7.822;2023-10-13T17:05:08;25.00;94.60
2565;DHT22;1292;48.020;7.822;2023-10-13T17:07:35;24.80;94.50
2565;DHT22;1292;48.020;7.822;2023-10-13T17:10:02;24.70;94.80
2565;DHT22;1292;48.020;7.822;2023-10-13T17:12:30;24.60;94.50
2565;DHT22;1292;48.020;7.822;2023-10-13T17:14:58;24.60;94.70
2565;DHT22;1292;48.020;7.822;2023-10-13T17:17:25;24.50;95.00
2565;DHT22;1292;48.020;7.822;2023-10-13T17:19:52;24.40;94.40
2565;DHT22;1292;48.020;7.822;2023-10-13T17:22:19;24.40;94.90
2565;DHT22;1292;48.020;7.822;2023-10-13T17:24:46;24.30;95.20
2565;DHT22;1292;48.020;7.822;2023-10-13T17:27:14;24.20;95.80
2565;DHT22;1292;48.020;7.822;2023-10-13T17:29:42;24.10;95.90
2565;DHT22;1292;48.020;7.822;2023-10-13T17:32:11;24.10;96.20
2565;DHT22;1292;48.020;7.822;2023-10-13T17:34:42;23.90;96.50
2565;DHT22;1292;48.020;7.822;2023-10-13T17:37:09;23.90;97.60
2565;DHT22;1292;48.020;7.822;2023-10-13T17:39:37;23.80;97.20
2565;DHT22;1292;48.020;7.822;2023-10-13T17:42:06;23.70;97.40
2565;DHT22;1292;48.020;7.822;2023-10-13T17:44:33;23.60;97.40
2565;DHT22;1292;48.020;7.822;2023-10-13T17:46:59;23.50;97.50
2565;DHT22;1292;48.020;7.822;2023-10-13T17:49:28;23.50;97.60
2565;DHT22;1292;48.020;7.822;2023-10-13T17:51:54;23.40;97.40
2565;DHT22;1292;48.020;7.822;2023-10-13T17:54:21;23.40;97.80
2565;DHT22;1292;48.020;7.822;2023-10-13T17:56:48;23.30;98.70
2565;DHT22;1292;48.020;7.822;2023-10-13T17:59:15;23.20;98.80
2565;DHT22;1292;48.020;7.822;2023-10-13T18:01:43;23.00;98.80
2565;DHT22;1292;48.020;7.822;2023-10-13T18:04:14;22.90;97.50
2565;DHT22;1292;48.020;7.822;2023-10-13T18:06:42;22.90;95.30
2565;DHT22;1292;48.020;7.822;2023-10-13T18:09:09;22.90;93.90
2565;DHT22;1292;48.020;7.822;2023-10-13T18:11:37;22.90;92.90
2565;DHT22;1292;48.020;7.822;2023-10-13T18:14:08;23.00;92.30
2565;DHT22;1292;48.020;7.822;2023-10-13T18:16:37;23.00;92.70
2565;DHT22;1292;48.020;7.822;2023-10-13T18:19:04;23.10;92.70
2565;DHT22;1292;48.020;7.822;2023-10-13T18:21:34;23.10;92.10
2565;DHT22;1292;48.020;7.822;2023-10-13T18:24:03;23.20;92.20
2565;DHT22;1292;48.020;7.822;2023-10-13T18:26:33;23.20;91.90
2565;DHT22;1292;48.020;7.822;2023-10-13T18:29:00;23.30;92.00
2565;DHT22;1292;48.020;7.822;2023-10-13T18:31:27;23.30;92.00
2565;DHT22;1292;48.020;7.822;2023-10-13T18:33:54;23.30;92.30
2565;DHT22;1292;48.020;7.822;2023-10-13T18:36:24;23.30;91.90
2565;DHT22;1292;48.020;7.822;2023-10-13T18:38:54;23.30;91.80
2565;DHT22;1292;48.020;7.822;2023-10-13T18:41:23;23.30;91.50
2565;DHT22;1292;48.020;7.822;2023-10-13T18:43:51;23.40;91.60
2565;DHT22;1292;48.020;7.822;2023-10-13T18:46:20;23.40;91.50
2565;DHT22;1292;48.020;7.822;2023-10-13T18:48:51;23.40;92.10
2565;DHT22;1292;48.020;7.822;2023-10-13T18:51:23;23.40;91.60
2565;DHT22;1292;48.020;7.822;2023-10-13T18:53:51;23.40;91.80
2565;DHT22;1292;48.020;7.822;2023-10-13T18:56:23;23.40;91.70
2565;DHT22;1292;48.020;7.822;2023-10-13T18:58:51;23.40;91.60
2565;DHT22;1292;48.020;7.822;2023-10-13T19:01:21;23.40;91.80
2565;DHT22;1292;48.020;7.822;2023-10-13T19:03:52;23.30;91.80
2565;DHT22;1292;48.020;7.822;2023-10-13T19:06:20;23.30;91.80
2565;DHT22;1292;48.020;7.822;2023-10-13T19:08:47;23.30;92.30
2565;DHT22;1292;48.020;7.822;2023-10-13T19:11:17;23.30;92.50
2565;DHT22;1292;48.020;7.822;2023-10-13T19:13:47;23.20;92.30
2565;DHT22;1292;48.020;7.822;2023-10-13T19:16:16;23.10;92.30
2565;DHT22;1292;48.020;7.822;2023-10-13T19:18:43;23.10;92.10
2565;DHT22;1292;48.020;7.822;2023-10-13T19:21:13;23.10;92.00
2565;DHT22;1292;48.020;7.822;2023-10-13T19:23:42;23.10;92.20
2565;DHT22;1292;48.020;7.822;2023-10-13T19:26:12;23.10;92.30
2565;DHT22;1292;48.020;7.822;2023-10-13T19:28:40;23.00;92.10
2565;DHT22;1292;48.020;7.822;2023-10-13T19:31:10;23.00;91.90
2565;DHT22;1292;48.020;7.822;2023-10-13T19:33:41;23.00;92.00
2565;DHT22;1292;48.020;7.822;2023-10-13T19:36:09;23.00;92.20
2565;DHT22;1292;48.020;7.822;2023-10-13T19:38:38;22.90;92.10
2565;DHT22;1292;48.020;7.822;2023-10-13T19:41:12;23.00;92.10
2565;DHT22;1292;48.020;7.822;2023-10-13T19:43:43;23.00;92.20
2565;DHT22;1292;48.020;7.822;2023-10-13T19:46:12;22.90;91.80
2565;DHT22;1292;48.020;7.822;2023-10-13T19:48:40;23.00;92.10
2565;DHT22;1292;48.020;7.822;2023-10-13T19:51:07;23.00;91.50
2565;DHT22;1292;48.020;7.822;2023-10-13T19:53:37;22.90;91.30
2565;DHT22;1292;48.020;7.822;2023-10-13T19:56:05;23.00;91.50
2565;DHT22;1292;48.020;7.822;2023-10-13T19:58:36;23.00;90.70
2565;DHT22;1292;48.020;7.822;2023-10-13T20:01:08;23.00;90.90
2565;DHT22;1292;48.020;7.822;2023-10-13T20:03:36;23.10;90.90
2565;DHT22;1292;48.020;7.822;2023-10-13T20:06:07;23.10;91.00
2565;DHT22;1292;48.020;7.822;2023-10-13T20:08:34;23.10;91.10
2565;DHT22;1292;48.020;7.822;2023-10-13T20:11:01;23.10;90.90
2565;DHT22;1292;48.020;7.822;2023-10-13T20:13:28;23.10;91.50
2565;DHT22;1292;48.020;7.822;2023-10-13T20:15:55;23.10;92.00
2565;DHT22;1292;48.020;7.822;2023-10-13T20:18:22;23.10;92.00
2565;DHT22;1292;48.020;7.822;2023-10-13T20:20:50;23.10;92.30
2565;DHT22;1292;48.020;7.822;2023-10-13T20:23:17;23.00;92.50
2565;DHT22;1292;48.020;7.822;2023-10-13T20:25:44;22.90;93.10
2565;DHT22;1292;48.020;7.822;2023-10-13T20:28:17;22.90;93.40
2565;DHT22;1292;48.020;7.822;2023-10-13T20:30:44;22.90;94.00
2565;DHT22;1292;48.020;7.822;2023-10-13T20:33:11;22.80;94.40
2565;DHT22;1292;48.020;7.822;2023-10-13T20:35:45;22.70;94.00
2565;DHT22;1292;48.020;7.822;2023-10-13T20:38:13;22.50;96.10
2565;DHT22;1292;48.020;7.822;2023-10-13T20:40:43;22.40;95.80
2565;DHT22;1292;48.020;7.822;2023-10-13T20:43:11;22.30;95.70
2565;DHT22;1292;48.020;7.822;2023-10-13T20:45:38;22.30;93.90
2565;DHT22;1292;48.020;7.822;2023-10-13T20:48:06;22.30;94.10
2565;DHT22;1292;48.020;7.822;2023-10-13T20:50:35;22.30;94.20
2565;DHT22;1292;48.020;7.822;2023-10-13T20:53:02;22.30;93.80
2565;DHT22;1292;48.020;7.822;2023-10-13T20:55:30;22.30;93.80
2565;DHT22;1292;48.020;7.822;2023-10-13T20:58:03;22.30;93.50
2565;DHT22;1292;48.020;7.822;2023-10-13T21:00:30;22.40;93.10
2565;DHT22;1292;48.020;7.822;2023-10-13T21:03:00;22.40;93.90
2565;DHT22;1292;48.020;7.822;2023-10-13T21:05:29;22.30;92.90
2565;DHT22;1292;48.020;7.822;2023-10-13T21:07:57;22.40;92.40
2565;DHT22;1292;48.020;7.822;2023-10-13T21:10:25;22.40;92.50
2565;DHT22;1292;48.020;7.822;2023-10-13T21:12:53;22.40;92.00
2565;DHT22;1292;48.020;7.822;2023-10-13T21:15:20;22.40;92.60
2565;DHT22;1292;48.020;7.822;2023-10-13T21:17:50;22.40;92.80
2565;DHT22;1292;48.020;7.822;2023-10-13T21:20:17;22.40;92.20
2565;DHT22;1292;48.020;7.822;2023-10-13T21:22:46;22.40;92.10
2565;DHT22;1292;48.020;7.822;2023-10-13T21:25:16;22.40;91.90
2565;DHT22;1292;48.020;7.822;2023-10-13T21:27:48;22.40;91.40
2565;DHT22;1292;48.020;7.822;2023-10-13T21:30:19;22.30;91.50
2565;DHT22;1292;48.020;7.822;2023-10-13T21:32:46;22.30;92.00
2565;DHT22;1292;48.020;7.822;2023-10-13T21:35:15;22.30;91.60
2565;DHT22;1292;48.020;7.822;2023-10-13T21:37:43;22.30;92.70
